Terminal Aerodrome Forecast
Issued by NWS Wilmington, OH

Current Version | Previous Version | Text Only | Print | Product List | Glossary Off
Versions: 1 2 3 4 5 6 7 8 9 10 11 12 13 14 15 16 17 18 19 20 21 22 23 24 25 26 27 28 29 30 31

000
FTUS41 KILN 142058 AAB
TAFCVG
TAF AMD
KCVG 142058Z 1421/1524 02009KT P6SM SCT025 BKN210
     FM142200 01004KT P6SM SCT035 BKN200
     FM150200 VRB03KT P6SM OVC150
     FM151000 21005KT P6SM SCT050 OVC150
     FM151400 23009KT P6SM BKN050
     FM151600 25012G18KT P6SM BKN040=

USA.gov is the U.S. government's official web portal to all federal, state and local government web resources and services.